Time;durP1;ratioP1;P1;durP2;ratioP2;P2;SDS_P1;SDS_P2;PMS_P1;PMS_P2;Temp;Humidity;BMP_temperature;BMP_pressure;BME280_temperature;BME280_humidity;BME280_pressure;Samples;Min_cycle;Max_cycle;Signal;HPM_P1;HPM_P2
2022/07/08 00:00:43;;;;;;;;;4.00;4.00;;;;;17.71;66.09;102324.91;4911727;29;45370;-85
2022/07/08 00:03:10;;;;;;;;;3.00;3.00;;;;;17.71;65.84;102326.69;4912841;28;45398;-86
2022/07/08 00:05:35;;;;;;;;;3.33;3.33;;;;;17.69;66.12;102320.41;4910710;28;44870;-85
2022/07/08 00:08:00;;;;;;;;;4.33;4.33;;;;;17.63;66.12;102323.91;4912471;28;45453;-85
2022/07/08 00:10:26;;;;;;;;;3.00;3.00;;;;;17.69;66.17;102340.13;4896328;29;45461;-86
2022/07/08 00:13:38;;;;;;;;;3.33;3.33;;;;;17.65;66.39;102327.53;4897393;29;44778;-86
2022/07/08 00:16:04;;;;;;;;;6.00;3.33;;;;;17.56;66.24;102322.97;4913462;29;45283;-86
2022/07/08 00:18:31;;;;;;;;;2.67;2.67;;;;;17.56;67.53;102328.34;4897311;29;46787;-86
2022/07/08 00:20:56;;;;;;;;;4.67;3.00;;;;;17.53;67.26;102327.41;4895852;28;45722;-86
2022/07/08 00:23:22;;;;;;;;;3.67;3.67;;;;;17.49;66.51;102325.56;4913982;28;45402;-86
2022/07/08 00:25:53;;;;;;;;;3.00;3.00;;;;;17.50;66.42;102338.16;4913533;28;45362;-86
2022/07/08 00:28:21;;;;;;;;;4.33;3.33;;;;;17.41;66.41;102320.13;4912843;28;48194;-84
2022/07/08 00:30:47;;;;;;;;;3.00;3.00;;;;;17.25;66.33;102289.47;4903998;28;44817;-85
2022/07/08 00:33:13;;;;;;;;;3.67;3.67;;;;;17.39;66.44;102320.09;4877927;28;45563;-85
2022/07/08 00:35:39;;;;;;;;;4.00;3.00;;;;;17.38;67.12;102307.53;4891004;29;45565;-85
2022/07/08 00:38:04;;;;;;;;;5.00;5.00;;;;;17.34;66.78;102311.06;4911348;29;46987;-85
2022/07/08 00:40:30;;;;;;;;;3.00;3.00;;;;;17.11;67.00;102288.41;4894800;29;45479;-85
2022/07/08 00:42:55;;;;;;;;;3.67;3.67;;;;;17.27;67.38;102322.66;4898297;29;45421;-85
2022/07/08 00:45:21;;;;;;;;;4.00;3.00;;;;;17.14;67.24;102305.47;4916927;28;45743;-85
2022/07/08 00:47:49;;;;;;;;;3.67;3.67;;;;;17.07;67.16;102300.00;4899943;29;46972;-85
2022/07/08 00:50:15;;;;;;;;;2.33;2.33;;;;;17.11;66.98;102310.81;4916235;28;45469;-86
2022/07/08 00:52:41;;;;;;;;;4.33;3.00;;;;;17.00;67.37;102280.19;4917581;28;44997;-86
2022/07/08 00:55:10;;;;;;;;;3.33;3.33;;;;;17.13;67.41;102322.50;4917062;28;44869;-85
2022/07/08 00:57:38;;;;;;;;;4.33;4.00;;;;;17.08;67.21;102320.63;4915666;29;47777;-85
2022/07/08 01:00:04;;;;;;;;;6.00;6.00;;;;;17.09;67.20;102326.03;4917053;28;45395;-85
2022/07/08 01:02:29;;;;;;;;;4.33;3.33;;;;;16.97;67.33;102296.31;4916599;28;44840;-85
2022/07/08 01:05:02;;;;;;;;;3.00;3.00;;;;;16.89;66.97;102284.56;4917118;28;45371;-84
2022/07/08 01:07:28;;;;;;;;;4.00;4.00;;;;;17.10;67.28;102326.91;4924211;28;46829;-86
2022/07/08 01:09:53;;;;;;;;;5.00;5.00;;;;;17.07;66.96;102337.66;4918497;28;45247;-86
2022/07/08 01:12:19;;;;;;;;;3.00;3.00;;;;;17.03;67.26;102342.06;4934327;28;45366;-85
2022/07/08 01:14:44;;;;;;;;;3.00;3.00;;;;;16.94;68.15;102334.78;4914419;28;45398;-86
2022/07/08 01:17:10;;;;;;;;;4.00;4.00;;;;;16.92;68.10;102344.59;4915268;28;47734;-85
2022/07/08 01:19:36;;;;;;;;;4.00;4.00;;;;;16.84;68.31;102348.06;4914569;28;45582;-84
2022/07/08 01:22:01;;;;;;;;;3.67;3.67;;;;;16.86;68.52;102355.25;4900251;28;45444;-84
2022/07/08 01:24:27;;;;;;;;;5.67;5.00;;;;;16.80;68.66;102349.78;4916598;28;45429;-85
2022/07/08 01:27:39;;;;;;;;;6.00;6.00;;;;;16.82;70.26;102364.16;4915048;29;47876;-85
2022/07/08 01:30:06;;;;;;;;;5.67;5.67;;;;;16.73;70.82;102367.59;4930796;28;45303;-85
2022/07/08 01:32:33;;;;;;;;;8.33;7.33;;;;;16.71;69.78;102373.84;4933114;28;44772;-84
2022/07/08 01:34:59;;;;;;;;;7.00;7.00;;;;;16.64;70.90;102374.63;4917896;28;45452;-84
2022/07/08 01:37:25;;;;;;;;;7.00;6.00;;;;;16.49;71.38;102365.44;4916136;28;47423;-85
2022/07/08 01:39:50;;;;;;;;;7.00;7.00;;;;;16.50;71.19;102377.09;4915617;28;45372;-85
2022/07/08 01:42:18;;;;;;;;;5.33;5.33;;;;;16.39;73.19;102371.56;4928176;28;45890;-86
2022/07/08 01:44:43;;;;;;;;;8.33;7.00;;;;;16.32;72.29;102369.63;4896780;29;45409;-85
2022/07/08 01:47:09;;;;;;;;;7.00;7.00;;;;;16.34;72.59;102375.94;4898391;29;45396;-84
2022/07/08 01:49:34;;;;;;;;;7.00;7.00;;;;;16.33;72.60;102380.41;4915534;28;45346;-85
2022/07/08 01:52:00;;;;;;;;;7.00;6.00;;;;;16.26;72.79;102365.09;4914447;28;44798;-85
2022/07/08 01:54:25;;;;;;;;;5.67;5.67;;;;;16.29;73.06;102386.59;4899180;29;45666;-86
2022/07/08 01:57:13;;;;;;;;;8.00;7.00;;;;;16.28;72.84;102370.47;4896015;29;48068;-85
2022/07/08 01:59:36;;;;;;;;;11.00;7.00;;;;;16.30;72.88;102368.69;4898022;29;44796;-85
2022/07/08 02:02:05;;;;;;;;;10.67;8.67;;;;;16.28;72.83;102354.34;4895999;29;45395;-85
2022/07/08 02:04:31;;;;;;;;;6.00;6.00;;;;;16.23;74.46;102354.28;4895948;29;45789;-86
2022/07/08 02:06:59;;;;;;;;;5.67;5.67;;;;;16.27;72.39;102363.28;4910267;28;47235;-86
2022/07/08 02:09:25;;;;;;;;;6.00;6.00;;;;;16.17;72.49;102371.19;4896500;29;44999;-86
2022/07/08 02:14:34;;;;;;;;;5.00;4.50;;;;;16.19;72.44;102366.75;4898101;29;45474;-86
2022/07/08 02:17:00;;;;;;;;;5.00;5.00;;;;;16.25;72.49;102371.31;4897103;29;48277;-86
2022/07/08 02:19:25;;;;;;;;;8.33;5.33;;;;;16.16;72.10;102360.44;4913116;28;45728;-86
2022/07/08 02:21:51;;;;;;;;;5.00;5.00;;;;;16.23;71.86;102370.38;4896364;29;45384;-86
2022/07/08 02:24:16;;;;;;;;;7.33;7.33;;;;;16.19;72.65;102360.47;4909239;28;45450;-86
2022/07/08 02:26:42;;;;;;;;;3.00;3.00;;;;;15.96;71.59;102325.22;4913042;28;46845;-85
2022/07/08 02:29:08;;;;;;;;;3.67;3.00;;;;;16.14;71.16;102363.09;4914608;28;45400;-85
2022/07/08 02:31:35;;;;;;;;;3.33;2.00;;;;;15.95;70.98;102334.13;4930095;28;45405;-84
2022/07/08 02:34:03;;;;;;;;;3.00;3.00;;;;;15.94;70.57;102332.34;4930844;28;44766;-85
2022/07/08 02:36:29;;;;;;;;;3.00;3.00;;;;;16.16;70.88;102377.44;4915154;28;45708;-85
2022/07/08 02:38:54;;;;;;;;;4.00;4.00;;;;;15.92;70.72;102328.72;4911485;29;45411;-86
2022/07/08 02:41:20;;;;;;;;;2.33;2.33;;;;;15.96;71.01;102336.84;4912335;28;45352;-86
2022/07/08 02:43:45;;;;;;;;;3.00;3.00;;;;;16.05;71.02;102346.81;4913048;28;45376;-85
2022/07/08 02:46:11;;;;;;;;;3.00;3.00;;;;;16.13;70.93;102361.28;4914543;28;46748;-85
2022/07/08 02:48:36;;;;;;;;;1.67;1.67;;;;;16.04;70.81;102354.84;4916577;28;45345;-86
2022/07/08 02:51:03;;;;;;;;;3.00;3.00;;;;;15.95;71.65;102339.50;4916382;28;45512;-86
2022/07/08 02:53:30;;;;;;;;;3.33;2.67;;;;;15.92;71.20;102344.81;4899046;29;45462;-86
2022/07/08 02:55:57;;;;;;;;;4.33;4.00;;;;;16.02;70.96;102372.69;4915043;28;45300;-86
2022/07/08 02:58:23;;;;;;;;;3.67;3.00;;;;;15.95;70.97;102359.16;4914307;28;45233;-86
2022/07/08 03:04:10;;;;;;;;;1.00;1.00;;;;;15.91;71.92;102364.47;4894641;29;45398;-84
2022/07/08 03:06:35;;;;;;;;;3.00;3.00;;;;;15.91;71.46;102369.81;4911450;28;47150;-85
2022/07/08 03:09:01;;;;;;;;;5.00;5.00;;;;;15.87;71.32;102378.69;4897130;28;45436;-85
2022/07/08 03:11:27;;;;;;;;;8.67;4.33;;;;;15.87;71.47;102378.69;4894782;28;44815;-85
2022/07/08 03:13:52;;;;;;;;;5.00;3.00;;;;;15.82;71.49;102367.00;4879339;29;45725;-85
2022/07/08 03:16:18;;;;;;;;;4.33;3.00;;;;;15.82;71.86;102369.69;4879396;29;47920;-85
2022/07/08 03:19:39;;;;;;;;;3.00;3.00;;;;;15.80;72.88;102378.59;4879259;29;45340;-85
2022/07/08 03:22:05;;;;;;;;;4.67;3.00;;;;;15.76;72.21;102374.03;4896363;28;45244;-85
2022/07/08 03:24:31;;;;;;;;;3.33;3.33;;;;;15.78;72.14;102379.44;4897193;28;45692;-85
2022/07/08 03:26:59;;;;;;;;;4.00;3.00;;;;;15.74;72.14;102381.16;4895729;28;45344;-85
2022/07/08 03:29:25;;;;;;;;;3.00;3.00;;;;;15.76;72.42;102386.56;4879917;29;45353;-85
2022/07/08 03:31:50;;;;;;;;;3.00;3.00;;;;;15.71;72.42;102388.19;4879778;29;45359;-85
2022/07/08 03:34:16;;;;;;;;;3.00;3.00;;;;;15.67;72.26;102387.22;4877895;29;45461;-85
2022/07/08 03:36:41;;;;;;;;;3.00;3.00;;;;;15.69;73.68;102400.66;4896156;28;45561;-85
2022/07/08 03:39:06;;;;;;;;;2.67;2.67;;;;;15.62;72.82;102388.94;4877858;29;45486;-86
2022/07/08 03:41:34;;;;;;;;;3.00;3.00;;;;;15.64;73.04;102397.91;4878287;29;45377;-86
2022/07/08 03:43:59;;;;;;;;;6.33;5.00;;;;;15.61;72.96;102403.19;4895533;28;45443;-85
2022/07/08 03:46:31;;;;;;;;;4.33;3.33;;;;;15.56;72.97;102386.13;4863965;28;47306;-85
2022/07/08 03:48:57;;;;;;;;;3.67;3.67;;;;;15.62;73.93;102405.03;4879680;28;45487;-85
2022/07/08 03:51:23;;;;;;;;;3.33;3.33;;;;;15.59;72.98;102395.16;4879683;29;44895;-85
2022/07/08 03:57:10;;;;;;;;;4.00;3.33;;;;;15.54;73.66;102395.94;4895379;29;45695;-86
2022/07/08 03:59:36;;;;;;;;;4.33;2.67;;;;;15.60;73.67;102412.13;4878938;29;45556;-86
2022/07/08 04:02:03;;;;;;;;;6.00;5.33;;;;;15.60;74.08;102412.13;4895203;28;45541;-86
2022/07/08 04:04:28;;;;;;;;;5.67;5.67;;;;;15.46;74.38;102387.72;4878111;29;44993;-85
2022/07/08 04:06:54;;;;;;;;;5.00;4.33;;;;;15.56;74.75;102413.84;4877659;29;46951;-85
2022/07/08 04:09:22;;;;;;;;;5.00;5.00;;;;;15.56;75.03;102410.25;4895619;28;45512;-85
2022/07/08 04:11:48;;;;;;;;;6.00;4.67;;;;;15.59;75.22;102415.69;4877329;28;45385;-85
2022/07/08 04:14:13;;;;;;;;;5.00;5.00;;;;;15.54;75.04;102402.19;4891737;28;45526;-84
2022/07/08 04:16:38;;;;;;;;;5.00;5.00;;;;;15.59;75.37;102404.94;4878213;29;46542;-83
2022/07/08 04:19:04;;;;;;;;;6.33;6.33;;;;;15.59;75.67;102405.88;4897550;28;45404;-86
2022/07/08 04:21:29;;;;;;;;;6.67;4.67;;;;;15.59;75.58;102392.47;4897338;29;45741;-86
2022/07/08 04:23:58;;;;;;;;;7.00;7.00;;;;;15.66;75.28;102398.84;4892105;29;44865;-86
2022/07/08 04:26:29;;;;;;;;;4.67;4.67;;;;;15.68;75.29;102401.56;4916061;28;45749;-86
2022/07/08 04:28:54;;;;;;;;;7.00;7.00;;;;;15.68;75.67;102405.16;4916605;29;45365;-85
2022/07/08 04:31:21;;;;;;;;;7.00;5.33;;;;;15.58;75.40;102384.38;4918220;28;45792;-85
2022/07/08 04:33:47;;;;;;;;;6.00;6.00;;;;;15.76;75.02;102403.53;4918084;28;44868;-85
2022/07/08 04:36:13;;;;;;;;;5.67;4.67;;;;;15.86;75.07;102411.78;4915235;28;46692;-85
2022/07/08 04:38:39;;;;;;;;;6.00;6.00;;;;;15.86;74.77;102403.75;4916420;28;45432;-85
2022/07/08 04:41:04;;;;;;;;;6.00;4.67;;;;;15.82;74.21;102375.03;4917138;29;44990;-86
2022/07/08 04:43:30;;;;;;;;;4.00;4.00;;;;;15.93;73.43;102385.06;4915711;28;45502;-86
2022/07/08 04:45:55;;;;;;;;;1.00;1.00;;;;;16.12;72.75;102413.16;4913525;28;46813;-86
2022/07/08 04:48:21;;;;;;;;;5.00;5.00;;;;;16.16;73.06;102417.72;4913596;28;45741;-86
2022/07/08 04:50:46;;;;;;;;;5.00;5.00;;;;;16.21;73.59;102431.19;4913453;28;45438;-86
2022/07/08 04:53:12;;;;;;;;;5.00;5.00;;;;;16.17;73.43;102414.13;4914839;28;45328;-86
2022/07/08 04:55:37;;;;;;;;;7.67;7.00;;;;;16.32;73.23;102420.63;4915478;28;45558;-86
2022/07/08 04:58:04;;;;;;;;;6.00;5.33;;;;;16.23;72.65;102394.56;4914781;28;45374;-86
2022/07/08 05:03:54;;;;;;;;;7.67;6.00;;;;;16.70;72.08;102425.75;4916420;28;45436;-86
2022/07/08 05:06:20;;;;;;;;;6.67;6.67;;;;;16.78;72.07;102430.38;4914272;29;47031;-85
2022/07/08 05:08:45;;;;;;;;;7.00;6.67;;;;;16.89;72.10;102441.31;4932959;28;45322;-85
2022/07/08 05:11:11;;;;;;;;;7.33;6.00;;;;;17.02;71.74;102438.81;4919265;28;45455;-84
2022/07/08 05:13:36;;;;;;;;;8.00;6.00;;;;;17.11;71.09;102442.53;4917308;28;45556;-85
2022/07/08 05:16:40;;;;;;;;;6.33;6.33;;;;;17.26;71.08;102441.84;4936121;28;45290;-85
2022/07/08 05:19:08;;;;;;;;;6.00;6.00;;;;;17.33;69.91;102442.81;4919023;28;45026;-86
2022/07/08 05:21:36;;;;;;;;;7.67;6.67;;;;;17.29;69.88;102420.38;4936480;28;45449;-85
2022/07/08 05:24:07;;;;;;;;;10.33;7.67;;;;;17.51;69.58;102436.78;4937577;28;45488;-85
2022/07/08 05:26:33;;;;;;;;;7.00;5.67;;;;;17.63;69.59;102441.41;4936941;28;45590;-85
2022/07/08 05:29:00;;;;;;;;;7.67;7.67;;;;;17.71;69.12;102432.53;4935836;28;45513;-86
2022/07/08 05:31:26;;;;;;;;;5.00;5.00;;;;;17.82;68.17;102427.28;4903543;28;44896;-86
2022/07/08 05:33:51;;;;;;;;;6.00;6.00;;;;;17.91;67.96;102427.41;4918206;28;45438;-84
2022/07/08 05:36:17;;;;;;;;;5.33;5.33;;;;;18.02;67.31;102430.25;4920193;28;47215;-84
2022/07/08 05:38:42;;;;;;;;;9.33;6.33;;;;;18.16;66.87;102433.97;4935610;28;45394;-85
2022/07/08 05:41:09;;;;;;;;;7.67;7.00;;;;;18.01;66.46;102396.09;4920835;28;45422;-85
2022/07/08 05:43:35;;;;;;;;;6.33;5.33;;;;;18.30;66.40;102430.47;4937824;28;45314;-85
2022/07/08 05:46:01;;;;;;;;;4.00;4.00;;;;;18.46;65.57;102442.28;4935926;28;45649;-84
2022/07/08 05:48:28;;;;;;;;;4.00;2.00;;;;;18.45;63.98;102430.63;4919133;28;45379;-85
2022/07/08 05:50:54;;;;;;;;;4.33;4.33;;;;;18.22;64.09;102394.50;4919390;28;45290;-86
2022/07/08 05:53:20;;;;;;;;;3.67;3.33;;;;;18.43;63.45;102421.63;4903197;28;45619;-85
2022/07/08 05:55:48;;;;;;;;;4.33;4.00;;;;;18.53;63.33;102439.69;4918934;28;47262;-86
2022/07/08 05:58:13;;;;;;;;;5.67;5.67;;;;;18.49;63.12;102418.97;4903095;28;45498;-85
2022/07/08 06:00:42;;;;;;;;;7.00;4.00;;;;;18.60;62.66;102424.44;4918338;28;45374;-85
2022/07/08 06:03:07;;;;;;;;;8.00;6.00;;;;;18.61;62.53;102430.75;4931975;28;44800;-85
2022/07/08 06:08:54;;;;;;;;;6.67;5.33;;;;;18.56;61.91;102414.53;4917847;28;44955;-85
2022/07/08 06:11:20;;;;;;;;;4.00;4.00;;;;;18.68;61.93;102444.28;4917103;29;45324;-89
2022/07/08 06:13:53;;;;;;;;;3.00;3.00;;;;;18.74;61.79;102438.03;4900920;29;45455;-89
2022/07/08 06:16:26;;;;;;;;;3.00;3.00;;;;;18.64;61.58;102428.06;4900181;29;47956;-88
2022/07/08 06:18:53;;;;;;;;;5.00;3.67;;;;;18.54;62.02;102419.94;4899600;29;44665;-87
2022/07/08 06:21:19;;;;;;;;;5.00;5.00;;;;;18.75;62.32;102445.25;4900605;29;45358;-88
2022/07/08 06:23:45;;;;;;;;;5.00;3.00;;;;;18.58;61.53;102402.91;4900307;29;45275;-88
2022/07/08 06:26:17;;;;;;;;;3.00;1.67;;;;;18.71;61.41;102419.16;4899603;29;45253;-88
2022/07/08 06:28:46;;;;;;;;;4.00;4.00;;;;;18.96;60.78;102455.28;4906326;28;45365;-88
2022/07/08 06:31:13;;;;;;;;;5.00;5.00;;;;;18.91;59.98;102447.19;4914813;28;45464;-87
2022/07/08 06:33:48;;;;;;;;;3.00;3.00;;;;;18.87;60.67;102448.06;4917251;29;45315;-87
2022/07/08 06:36:25;;;;;;;;;7.00;4.67;;;;;18.90;60.41;102449.88;4916382;28;46132;-88
2022/07/08 06:38:54;;;;;;;;;4.67;4.67;;;;;18.83;60.50;102438.16;4916494;28;44939;-88
2022/07/08 06:41:19;;;;;;;;;7.00;6.00;;;;;18.89;59.23;102440.88;4915298;28;45396;-88
2022/07/08 06:43:55;;;;;;;;;4.00;2.00;;;;;19.02;59.88;102435.56;4915055;28;45341;-88
2022/07/08 06:46:24;;;;;;;;;6.33;4.00;;;;;19.34;58.46;102463.63;4914833;28;45560;-88
2022/07/08 06:48:53;;;;;;;;;3.33;3.00;;;;;19.36;58.77;102448.34;4897924;29;45152;-88
2022/07/08 06:51:26;;;;;;;;;3.00;3.00;;;;;19.26;57.79;102424.91;4915007;29;45356;-88
2022/07/08 06:56:45;;;;;;;;;5.00;5.00;;;;;19.21;58.09;102413.22;4915862;28;45413;-88
2022/07/08 06:59:11;;;;;;;;;4.00;4.00;;;;;19.33;57.43;102433.91;4914336;28;44865;-89
2022/07/08 07:01:36;;;;;;;;;3.33;3.33;;;;;19.34;57.29;102415.06;4914754;29;45295;-88
2022/07/08 07:04:17;;;;;;;;;4.67;3.67;;;;;19.48;57.39;102436.69;4913655;28;45494;-88
2022/07/08 07:06:47;;;;;;;;;4.67;4.00;;;;;19.57;57.84;102443.91;4913902;28;46044;-87
2022/07/08 07:09:33;;;;;;;;;4.00;4.00;;;;;19.87;56.80;102456.66;4913189;28;45423;-88
2022/07/08 07:12:09;;;;;;;;;5.33;4.33;;;;;19.97;56.14;102454.88;4913931;29;45359;-87
2022/07/08 07:14:40;;;;;;;;;4.00;4.00;;;;;20.01;54.91;102450.41;4897730;28;45396;-88
2022/07/08 07:17:48;;;;;;;;;;;;;;;;;;;;;
2022/07/08 07:37:29;;;;;;;;;4.00;4.00;;;;;20.25;52.91;102446.84;4916556;28;44945;-88
2022/07/08 07:40:41;;;;;;;;;2.67;2.67;;;;;20.32;53.03;102467.56;4903280;28;45602;-87
2022/07/08 07:46:03;;;;;;;;;4.33;4.33;;;;;20.14;52.94;102426.13;5084792;23;44926;-88
2022/07/08 07:48:45;;;;;;;;;4.00;4.00;;;;;20.28;53.28;102441.44;4932866;28;45397;-89
2022/07/08 07:51:12;;;;;;;;;4.00;2.00;;;;;20.36;51.83;102447.78;4885698;29;46994;-89
2022/07/08 07:54:04;;;;;;;;;5.00;5.00;;;;;20.39;51.72;102458.56;4902135;28;45465;-89
2022/07/08 07:56:32;;;;;;;;;5.00;4.67;;;;;20.31;52.07;102447.75;4894360;29;45418;-88
2022/07/08 07:59:29;;;;;;;;;;;;;;;;;;;;;
2022/07/08 08:02:03;;;;;;;;;4.00;4.00;;;;;20.29;52.72;102416.22;4914741;28;74466;-88
2022/07/08 10:27:06;;;;;;;;;8.00;8.00;;;;;21.83;45.04;102396.91;4911575;28;45960;-86
2022/07/08 10:30:10;;;;;;;;;7.33;7.33;;;;;21.91;44.86;102387.81;4898962;28;47021;-88
2022/07/08 10:32:37;;;;;;;;;11.67;7.33;;;;;21.96;44.48;102382.38;4896644;28;45406;-87
2022/07/08 10:38:31;;;;;;;;;7.00;7.00;;;;;21.95;43.78;102365.19;5154868;23;46940;-85
2022/07/08 10:45:23;;;;;;;;;8.00;5.67;;;;;22.26;41.93;102396.63;4781284;29;44997;-87
2022/07/08 10:48:44;;;;;;;;;4.33;4.33;;;;;22.31;41.89;102389.38;4714228;30;45267;-86
2022/07/08 10:51:22;;;;;;;;;4.00;3.00;;;;;22.34;41.81;102383.94;4738124;29;48451;-85
2022/07/08 10:57:35;;;;;;;;;7.33;5.00;;;;;22.36;40.78;102374.88;4813589;29;45328;-82
2022/07/08 11:00:09;;;;;;;;;4.67;3.33;;;;;22.46;40.84;102389.25;4807043;29;44996;-84
2022/07/08 11:03:17;;;;;;;;;5.67;5.67;;;;;22.28;40.46;102343.28;4822025;29;45925;-83
2022/07/08 11:06:32;;;;;;;;;5.67;4.67;;;;;22.53;41.28;102369.28;4765359;29;47310;-85
2022/07/08 11:09:07;;;;;;;;;4.67;4.33;;;;;22.44;40.57;102341.34;4756984;29;45330;-84
2022/07/08 11:11:37;;;;;;;;;3.00;3.00;;;;;22.73;39.07;102382.63;4747906;30;45531;-84
2022/07/08 11:14:05;;;;;;;;;4.00;3.67;;;;;22.73;38.23;102381.75;4749261;29;45379;-84
2022/07/08 11:17:30;;;;;;;;;4.33;3.67;;;;;22.76;39.16;102378.97;4771146;29;45288;-85
2022/07/08 11:26:24;;;;;;;;;5.33;3.00;;;;;22.78;39.73;102339.16;4746726;29;45379;-86
2022/07/08 11:32:08;;;;;;;;;4.00;4.00;;;;;23.18;37.34;102371.31;4746487;30;45494;-86
2022/07/08 11:34:37;;;;;;;;;3.00;2.67;;;;;23.22;39.29;102359.47;4732230;30;44830;-85
2022/07/08 11:37:40;;;;;;;;;3.00;3.00;;;;;23.28;38.87;102370.25;4736619;29;45338;-85
2022/07/08 11:40:34;;;;;;;;;3.00;3.00;;;;;23.12;37.58;102336.97;4764765;29;45491;-86
2022/07/08 11:43:10;;;;;;;;;;;;;;;;;;;;;
2022/07/08 11:45:36;;;;;;;;;3.33;3.33;;;;;23.19;38.09;102326.97;4801952;29;67527;-86
2022/07/08 11:48:08;;;;;;;;;3.00;3.00;;;;;23.32;38.35;102355.72;4771203;29;45492;-87
2022/07/08 11:50:54;;;;;;;;;2.00;2.00;;;;;23.43;37.65;102373.69;4771013;29;44990;-85
2022/07/08 11:53:25;;;;;;;;;3.33;3.33;;;;;23.39;36.50;102345.72;4783068;29;45406;-87
2022/07/08 11:56:02;;;;;;;;;2.67;2.67;;;;;23.48;37.58;102350.09;4795188;29;45416;-84
2022/07/08 11:59:05;;;;;;;;;3.00;3.00;;;;;23.50;37.29;102334.69;4841000;29;45482;-86
2022/07/08 12:01:31;;;;;;;;;3.00;3.00;;;;;23.63;36.34;102343.53;4838943;29;45701;-84
2022/07/08 12:04:08;;;;;;;;;4.33;4.33;;;;;23.68;36.74;102348.00;4890168;23;45637;-85
2022/07/08 12:06:34;;;;;;;;;3.00;3.00;;;;;23.63;36.00;102330.88;4949440;28;45601;-84
2022/07/08 12:12:47;;;;;;;;;6.00;4.00;;;;;23.65;37.01;102317.25;4953553;28;45422;-83
2022/07/08 12:18:27;;;;;;;;;2.00;2.00;;;;;23.64;36.24;102294.63;4889762;29;46133;-84
2022/07/08 12:21:00;;;;;;;;;4.00;1.33;;;;;23.80;36.67;102322.50;4877810;29;45397;-85
2022/07/08 12:23:26;;;;;;;;;2.00;2.00;;;;;23.90;36.75;102336.84;4874386;29;45471;-86
2022/07/08 12:26:12;;;;;;;;;1.00;1.00;;;;;23.86;36.58;102330.53;4884081;29;44772;-85
2022/07/08 12:28:38;;;;;;;;;5.67;4.00;;;;;23.85;36.91;102312.44;4874772;29;45455;-85
2022/07/08 12:31:35;;;;;;;;;2.00;2.00;;;;;23.90;36.61;102298.78;4877256;29;45373;-85
2022/07/08 12:34:19;;;;;;;;;3.00;1.00;;;;;23.93;37.25;102293.28;4894436;29;45306;-86
2022/07/08 12:36:48;;;;;;;;;4.00;2.00;;;;;23.93;35.72;102269.72;4869592;28;45447;-85
2022/07/08 12:39:22;;;;;;;;;2.00;2.00;;;;;24.09;36.75;102283.03;4897535;28;45139;-85
2022/07/08 12:42:26;;;;;;;;;2.00;2.00;;;;;24.03;35.94;102275.00;4862986;29;45544;-85
2022/07/08 12:45:14;;;;;;;;;3.00;3.00;;;;;24.09;36.60;102286.66;4859952;29;46405;-85
2022/07/08 12:47:43;;;;;;;;;2.00;2.00;;;;;24.33;36.24;102298.03;4933525;23;45125;-85
2022/07/08 12:50:21;;;;;;;;;2.00;2.00;;;;;24.44;36.85;102306.88;4933506;28;45436;-86
2022/07/08 12:52:59;;;;;;;;;3.00;3.00;;;;;24.36;35.98;102278.94;4938813;28;45513;-84
2022/07/08 12:56:10;;;;;;;;;2.00;2.00;;;;;24.54;35.43;102311.25;4938272;28;45486;-86
2022/07/08 13:02:47;;;;;;;;;;;;;;;;;;;;;
2022/07/08 13:05:16;;;;;;;;;3.33;2.33;;;;;24.61;35.90;102300.25;4940669;28;65099;-86
2022/07/08 13:07:43;;;;;;;;;1.00;1.00;;;;;24.59;35.55;102285.78;4937292;28;46651;-85
2022/07/08 13:10:12;;;;;;;;;3.67;3.00;;;;;24.67;35.40;102286.53;4936421;28;45096;-84
2022/07/08 13:16:24;;;;;;;;;3.00;2.00;;;;;24.61;34.84;102245.84;4920677;29;44887;-85
2022/07/08 13:18:56;;;;;;;;;1.67;1.67;;;;;24.64;34.97;102243.97;4897069;28;45423;-84
2022/07/08 13:25:51;;;;;;;;;;;;;;;;;;;;;
2022/07/08 13:28:14;;;;;;;;;2.00;2.00;;;;;24.92;34.47;102268.72;4818993;29;45822;-84
2022/07/08 13:31:04;;;;;;;;;2.67;2.67;;;;;24.80;34.10;102247.22;4806843;29;47209;-84
2022/07/08 13:33:37;;;;;;;;;3.33;3.00;;;;;24.83;34.62;102249.00;4822103;29;44769;-86
2022/07/08 13:36:18;;;;;;;;;2.00;2.00;;;;;24.92;34.50;102249.69;4824273;29;45954;-85
2022/07/08 13:39:05;;;;;;;;;;;;;;;;;;;;;
2022/07/08 13:41:37;;;;;;;;;1.25;1.25;;;;;25.22;34.48;102252.69;4789628;29;75570;-84
2022/07/08 13:44:16;;;;;;;;;1.67;1.67;;;;;25.45;34.89;102278.47;4827678;29;44889;-84
2022/07/08 13:46:57;;;;;;;;;2.67;2.00;;;;;25.68;34.56;102267.94;4840586;29;44817;-86
2022/07/08 13:49:55;;;;;;;;;1.67;1.67;;;;;26.39;32.00;102238.81;4808282;29;45538;-85
2022/07/08 13:52:24;;;;;;;;;1.00;1.00;;;;;28.19;32.31;102248.66;4822192;29;45310;-86
2022/07/08 13:55:48;;;;;;;;;3.33;2.67;;;;;30.39;25.78;102213.28;4808477;29;45560;-85
2022/07/08 13:58:28;;;;;;;;;0.75;0.75;;;;;32.12;24.15;102204.78;4801487;29;45503;-85
2022/07/08 14:01:03;;;;;;;;;2.67;2.33;;;;;33.44;23.66;102247.94;4840515;29;45286;-85
2022/07/08 14:04:04;;;;;;;;;0.33;0.33;;;;;34.29;23.67;102245.63;4855303;29;46435;-84
2022/07/08 14:06:30;;;;;;;;;0.25;0.25;;;;;35.35;24.01;102247.13;4853199;29;45431;-84
2022/07/08 14:08:57;;;;;;;;;1.25;1.25;;;;;36.35;22.11;102243.00;4855041;29;45473;-85
2022/07/08 14:11:22;;;;;;;;;2.00;2.00;;;;;36.80;21.09;102221.31;4854482;29;45321;-84
2022/07/08 14:14:15;;;;;;;;;1.00;1.00;;;;;37.77;21.97;102241.75;4856853;29;46945;-84
2022/07/08 14:19:57;;;;;;;;;1.00;1.00;;;;;39.59;20.14;102252.94;5080973;23;45490;-85
2022/07/08 14:22:44;;;;;;;;;0.00;0.00;;;;;39.74;19.11;102214.50;4905095;28;44869;-85
2022/07/08 14:25:11;;;;;;;;;1.25;1.00;;;;;40.23;19.19;102203.72;4929459;28;45539;-85
2022/07/08 14:27:39;;;;;;;;;0.25;0.25;;;;;40.89;15.79;102236.84;4915040;28;46336;-85
2022/07/08 14:30:09;;;;;;;;;1.00;1.00;;;;;40.74;18.11;102211.25;4916176;28;44857;-85
2022/07/08 14:32:48;;;;;;;;;0.50;0.50;;;;;41.06;15.17;102207.34;4915439;28;45415;-84
2022/07/08 14:35:19;;;;;;;;;1.33;0.67;;;;;41.22;16.18;102236.66;4915651;28;45674;-85
2022/07/08 14:41:07;;;;;;;;;0.00;0.00;;;;;42.13;14.51;102232.59;4924277;28;45314;-85
2022/07/08 14:43:38;;;;;;;;;0.67;0.00;;;;;42.11;13.32;102222.63;4915724;28;45311;-85
2022/07/08 14:46:04;;;;;;;;;2.00;2.00;;;;;41.81;14.11;102224.53;4913057;28;48437;-85
2022/07/08 14:48:30;;;;;;;;;1.00;1.00;;;;;41.51;15.00;102200.38;4914413;28;44762;-85
2022/07/08 14:50:55;;;;;;;;;1.33;0.00;;;;;41.92;13.85;102206.75;4930907;28;44917;-85
2022/07/08 14:53:21;;;;;;;;;1.00;1.00;;;;;41.78;15.22;102199.69;4915927;28;45295;-84
2022/07/08 14:55:49;;;;;;;;;0.00;0.00;;;;;42.35;14.75;102192.22;4898497;28;46878;-86
2022/07/08 14:58:17;;;;;;;;;0.00;0.00;;;;;42.72;14.00;102215.66;4901815;28;45604;-85
2022/07/08 15:01:14;;;;;;;;;0.67;0.67;;;;;42.76;13.23;102220.81;4926490;28;45508;-85
2022/07/08 15:03:40;;;;;;;;;2.67;1.00;;;;;42.82;13.53;102179.25;4931973;28;45632;-85
2022/07/08 15:06:08;;;;;;;;;0.00;0.00;;;;;43.20;12.85;102208.06;4900692;28;46942;-84
2022/07/08 15:08:41;;;;;;;;;0.00;0.00;;;;;43.33;14.30;102186.19;4915785;28;45672;-86
2022/07/08 15:11:08;;;;;;;;;0.00;0.00;;;;;43.78;15.00;102179.63;4916287;28;45424;-85
2022/07/08 15:13:33;;;;;;;;;0.67;0.67;;;;;44.34;14.49;102174.63;4926559;28;45612;-84
2022/07/08 15:16:05;;;;;;;;;1.33;1.33;;;;;44.77;13.86;102175.53;4908336;29;46655;-85
2022/07/08 15:18:37;;;;;;;;;3.33;2.00;;;;;44.87;12.99;102165.06;4913999;28;45595;-85
2022/07/08 15:21:15;;;;;;;;;1.00;1.00;;;;;45.92;14.26;102187.88;4932691;28;45341;-85
2022/07/08 15:27:05;;;;;;;;;0.00;0.00;;;;;47.96;11.25;102186.25;4915226;29;44833;-84
2022/07/08 15:29:31;;;;;;;;;0.00;0.00;;;;;48.76;12.01;102193.09;4913096;29;45372;-83
2022/07/08 15:31:56;;;;;;;;;0.00;0.00;;;;;49.13;11.95;102179.88;4928233;28;44957;-83
2022/07/08 15:34:22;;;;;;;;;1.00;1.00;;;;;49.21;9.60;102180.66;4934304;28;44808;-85
2022/07/08 15:36:48;;;;;;;;;0.00;0.00;;;;;48.95;8.42;102175.53;4915203;28;47488;-84
2022/07/08 15:39:16;;;;;;;;;1.00;0.00;;;;;48.37;10.45;102169.75;4931456;28;44820;-84
2022/07/08 15:41:41;;;;;;;;;3.00;1.33;;;;;48.04;9.28;102177.69;4914525;28;45405;-85
2022/07/08 15:44:06;;;;;;;;;0.00;0.00;;;;;48.29;9.42;102163.34;4914009;28;45427;-84
2022/07/08 15:46:33;;;;;;;;;1.00;0.67;;;;;48.29;9.13;102164.22;4915352;28;45343;-85